Time;durP1;ratioP1;P1;durP2;ratioP2;P2;SDS_P1;SDS_P2;PMS_P1;PMS_P2;Temp;Humidity;BMP_temperature;BMP_pressure;BME280_temperature;BME280_humidity;BME280_pressure;Samples;Min_cycle;Max_cycle;Signal;HPM_P1;HPM_P2
2022/01/17 00:00:21;;;;;;;21.02;7.28;;;;;;;-2.41;83.89;97554.63;5086270;28;20096;-65
2022/01/17 00:02:50;;;;;;;27.75;8.27;;;;;;;-2.33;83.57;97573.06;5081046;28;20061;-66
2022/01/17 00:05:17;;;;;;;21.38;7.22;;;;;;;-2.33;83.63;97575.78;5065543;28;20052;-65
2022/01/17 00:07:44;;;;;;;17.05;7.38;;;;;;;-2.44;84.35;97601.28;5065042;28;20390;-63
2022/01/17 00:10:12;;;;;;;18.42;6.88;;;;;;;-2.70;84.74;97526.50;5064392;28;20448;-66
2022/01/17 00:12:45;;;;;;;16.27;6.65;;;;;;;-2.38;84.92;97578.50;5065914;28;20068;-63
2022/01/17 00:15:25;;;;;;;18.67;7.90;;;;;;;-3.14;84.96;97482.13;5065832;28;20052;-66
2022/01/17 00:18:19;;;;;;;20.05;7.72;;;;;;;-2.41;84.88;97583.66;5066088;28;20114;-64
2022/01/17 00:20:40;;;;;;;23.80;8.23;;;;;;;-2.38;85.10;97597.47;5065745;28;20072;-65
2022/01/17 00:23:06;;;;;;;21.75;7.75;;;;;;;-2.31;84.63;97597.97;5064687;28;20048;-62
2022/01/17 00:25:33;;;;;;;18.77;8.02;;;;;;;-2.30;84.98;97602.34;5064037;28;20048;-62
2022/01/17 00:28:00;;;;;;;23.80;8.15;;;;;;;-2.53;85.33;97586.63;5065256;28;20060;-61
2022/01/17 00:30:27;;;;;;;24.13;7.75;;;;;;;-2.85;86.98;97556.34;5063789;28;20052;-64
2022/01/17 00:32:53;;;;;;;19.17;7.50;;;;;;;-2.58;87.15;97578.53;5064497;28;20056;-65
2022/01/17 00:35:20;;;;;;;15.57;7.00;;;;;;;-2.65;87.13;97560.91;5062913;28;20071;-65
2022/01/17 00:37:49;;;;;;;14.15;5.97;;;;;;;-2.40;85.79;97586.06;5065075;28;20048;-62
2022/01/17 00:40:15;;;;;;;16.67;6.38;;;;;;;-2.34;84.96;97584.97;5065015;28;20131;-64
2022/01/17 00:42:45;;;;;;;18.30;6.18;;;;;;;-2.50;84.70;97586.13;5063734;28;20055;-62
2022/01/17 00:45:13;;;;;;;18.02;6.88;;;;;;;-3.02;85.70;97500.81;5065047;28;20048;-65
2022/01/17 00:47:41;;;;;;;19.98;6.68;;;;;;;-2.38;85.60;97583.91;5063273;28;20045;-62
2022/01/17 00:50:09;;;;;;;19.67;7.60;;;;;;;-2.39;84.96;97581.47;5062830;28;20055;-64
2022/01/17 00:52:36;;;;;;;29.50;8.55;;;;;;;-2.38;85.32;97566.81;5063007;28;20052;-62
2022/01/17 00:55:03;;;;;;;25.38;7.80;;;;;;;-3.18;85.86;97460.16;5063154;28;20495;-62
2022/01/17 00:57:30;;;;;;;22.50;8.00;;;;;;;-2.53;85.89;97562.22;5045305;28;20068;-64
2022/01/17 00:59:56;;;;;;;18.27;7.28;;;;;;;-2.37;83.88;97585.53;5077272;28;20227;-62
2022/01/17 01:02:23;;;;;;;23.25;8.38;;;;;;;-2.48;84.80;97573.06;5063862;28;20063;-61
2022/01/17 01:04:51;;;;;;;35.28;13.45;;;;;;;-3.43;84.80;97402.53;5064323;28;20142;-62
2022/01/17 01:07:17;;;;;;;65.43;20.58;;;;;;;-2.47;84.05;97565.75;5062429;28;20527;-62
2022/01/17 01:09:56;;;;;;;57.17;20.80;;;;;;;-2.53;84.20;97554.09;5062779;28;20048;-65
2022/01/17 01:12:23;;;;;;;77.57;24.73;;;;;;;-2.53;84.39;97556.81;5062553;28;20056;-64
2022/01/17 01:14:50;;;;;;;71.53;23.35;;;;;;;-2.59;84.94;97536.22;5064264;28;20048;-66
2022/01/17 01:17:47;;;;;;;58.85;20.20;;;;;;;-2.71;85.65;97535.72;5062463;28;20049;-62
2022/01/17 01:28:16;;;;;;;62.63;24.48;;;;;;;-3.26;86.03;97411.97;5064407;28;20048;-65
2022/01/17 01:30:47;;;;;;;72.28;22.08;;;;;;;-2.51;84.82;97513.97;5064203;28;20060;-65
2022/01/17 01:33:22;;;;;;;55.13;18.83;;;;;;;-2.60;85.22;97493.94;5062182;28;20511;-63
2022/01/17 01:35:50;;;;;;;52.75;17.60;;;;;;;-2.85;85.58;97458.78;5064009;28;20055;-66
2022/01/17 01:38:17;;;;;;;33.38;12.65;;;;;;;-2.76;85.80;97467.97;5063830;28;20427;-66
2022/01/17 01:40:43;;;;;;;38.85;13.90;;;;;;;-2.77;86.23;97466.34;5062422;28;20526;-64
2022/01/17 01:43:10;;;;;;;46.38;14.10;;;;;;;-2.75;86.03;97464.16;5062477;28;20048;-65
2022/01/17 01:45:37;;;;;;;38.45;14.73;;;;;;;-3.01;86.70;97435.50;5062189;28;20394;-62
2022/01/17 01:48:05;;;;;;;43.85;14.38;;;;;;;-2.65;86.93;97474.97;5063774;28;20052;-62
2022/01/17 01:50:32;;;;;;;38.15;13.55;;;;;;;-2.96;86.71;97488.88;5062590;28;20060;-63
2022/01/17 01:52:59;;;;;;;36.53;12.90;;;;;;;-2.50;86.83;97465.97;5063494;28;20438;-65
2022/01/17 01:55:26;;;;;;;34.65;12.63;;;;;;;-2.95;86.93;97415.44;5063627;28;20503;-64
2022/01/17 01:57:52;;;;;;;29.83;11.18;;;;;;;-2.63;86.53;97434.84;5063714;28;20052;-66
2022/01/17 02:00:19;;;;;;;24.35;10.45;;;;;;;-2.46;87.12;97462.44;5063672;28;20066;-64
2022/01/17 02:02:46;;;;;;;29.65;11.65;;;;;;;-3.00;86.61;97418.16;5063524;28;20060;-65
2022/01/17 02:05:13;;;;;;;30.75;12.57;;;;;;;-2.83;85.51;97383.44;5063192;28;20056;-64
2022/01/17 02:07:43;;;;;;;50.78;16.70;;;;;;;-2.49;85.56;97463.00;5061649;28;20040;-63
2022/01/17 02:10:10;;;;;;;70.97;24.75;;;;;;;-2.62;86.12;97452.72;5062086;28;20439;-65
2022/01/17 02:12:37;;;;;;;90.63;31.17;;;;;;;-3.23;86.10;97361.88;5062110;28;20052;-65
2022/01/17 02:15:05;;;;;;;115.38;43.08;;;;;;;-2.50;85.54;97455.97;5061899;28;20048;-64
2022/01/17 02:17:34;;;;;;;90.18;32.78;;;;;;;-2.53;85.44;97445.63;5063820;28;20048;-63
2022/01/17 02:20:07;;;;;;;70.75;26.23;;;;;;;-2.68;85.38;97432.16;5063443;28;20048;-65
2022/01/17 02:22:34;;;;;;;66.75;20.45;;;;;;;-2.66;85.82;97440.81;5062157;28;20066;-62
2022/01/17 02:25:01;;;;;;;37.13;13.13;;;;;;;-2.76;87.64;97435.44;5063326;28;20071;-66
2022/01/17 02:27:28;;;;;;;26.25;8.73;;;;;;;-2.68;87.25;97421.31;5063007;28;20586;-65
2022/01/17 02:29:55;;;;;;;20.55;7.80;;;;;;;-2.80;87.34;97406.44;5063728;28;20525;-62
2022/01/17 02:32:21;;;;;;;20.95;7.35;;;;;;;-3.26;87.37;97367.84;5062732;28;20059;-65
2022/01/17 02:34:49;;;;;;;18.83;7.10;;;;;;;-2.86;88.03;97427.31;5063110;28;20059;-63
2022/01/17 02:37:18;;;;;;;19.92;7.03;;;;;;;-2.95;88.33;97420.84;5062822;28;20481;-64
2022/01/17 02:39:45;;;;;;;20.20;6.85;;;;;;;-2.93;87.73;97413.28;5063294;28;20149;-64
2022/01/17 02:42:16;;;;;;;18.65;6.88;;;;;;;-3.11;88.03;97378.63;5062803;28;20057;-65
2022/01/17 02:44:45;;;;;;;18.92;6.95;;;;;;;-3.27;88.08;97347.25;5063192;28;20083;-64
2022/01/17 02:47:15;;;;;;;17.38;6.57;;;;;;;-2.86;87.44;97413.78;5062679;28;20048;-63
2022/01/17 02:49:42;;;;;;;17.92;5.75;;;;;;;-2.90;87.53;97420.03;5062978;28;20155;-63
2022/01/17 02:52:09;;;;;;;19.80;7.20;;;;;;;-2.91;88.67;97411.09;5062724;28;20416;-63
2022/01/17 02:54:36;;;;;;;25.45;8.82;;;;;;;-3.45;88.20;97351.38;5063044;28;20062;-67
2022/01/17 02:57:03;;;;;;;31.15;12.20;;;;;;;-3.30;87.38;97354.03;5063852;28;20052;-65
2022/01/17 02:59:31;;;;;;;40.28;15.15;;;;;;;-3.03;87.20;97402.44;5065698;28;20454;-66
2022/01/17 03:01:59;;;;;;;32.83;12.27;;;;;;;-2.98;88.44;97401.63;5065472;28;20534;-62
2022/01/17 03:04:28;;;;;;;37.55;13.45;;;;;;;-3.52;88.42;97339.19;5061169;28;20049;-63
2022/01/17 03:06:54;;;;;;;37.15;15.85;;;;;;;-3.34;88.31;97341.31;5066991;28;20049;-63
2022/01/17 03:09:23;;;;;;;37.70;15.38;;;;;;;-3.30;90.58;97408.19;5067271;28;20051;-66
2022/01/17 03:11:50;;;;;;;31.60;11.32;;;;;;;-3.30;90.98;97412.78;5066792;28;20053;-63
2022/01/17 03:14:17;;;;;;;31.08;10.85;;;;;;;-3.59;91.53;97398.22;5066831;28;20067;-67
2022/01/17 03:16:47;;;;;;;27.55;11.57;;;;;;;-3.30;91.51;97397.38;5066749;28;20045;-65
2022/01/17 03:19:14;;;;;;;35.53;13.38;;;;;;;-3.23;90.94;97402.50;5066831;28;20053;-63
2022/01/17 03:21:40;;;;;;;32.67;13.60;;;;;;;-3.18;90.08;97399.78;5066923;28;20044;-63
2022/01/17 03:24:07;;;;;;;38.75;13.88;;;;;;;-3.05;89.73;97393.78;5067043;28;20052;-65
2022/01/17 03:26:34;;;;;;;25.38;9.77;;;;;;;-3.03;89.43;97391.63;5067007;28;20495;-65
2022/01/17 03:29:03;;;;;;;25.77;11.20;;;;;;;-3.00;88.71;97391.06;5065215;28;20098;-62
2022/01/17 03:31:30;;;;;;;28.27;10.50;;;;;;;-3.01;88.80;97388.63;5066553;28;20052;-66
2022/01/17 03:33:57;;;;;;;34.33;11.25;;;;;;;-3.72;89.53;97312.16;5065958;28;20058;-63
2022/01/17 03:36:23;;;;;;;46.30;15.18;;;;;;;-3.18;89.46;97378.13;5064735;28;20059;-65
2022/01/17 03:38:50;;;;;;;39.15;12.98;;;;;;;-3.20;89.50;97377.56;5066015;28;20056;-64
2022/01/17 03:41:17;;;;;;;34.08;12.82;;;;;;;-3.34;90.03;97357.56;5066645;28;20199;-63
2022/01/17 03:43:44;;;;;;;31.05;10.65;;;;;;;-3.09;89.45;97379.16;5064879;28;20497;-65
2022/01/17 03:46:11;;;;;;;32.00;12.63;;;;;;;-3.10;89.14;97385.69;5065772;28;20136;-65
2022/01/17 03:48:38;;;;;;;52.40;17.55;;;;;;;-3.10;89.59;97381.06;5066605;28;20423;-64
2022/01/17 03:51:05;;;;;;;49.45;17.15;;;;;;;-3.02;88.70;97377.00;5065985;28;20498;-65
2022/01/17 03:53:32;;;;;;;46.55;16.75;;;;;;;-3.08;88.59;97368.06;5066073;28;20060;-63
2022/01/17 03:55:59;;;;;;;36.00;14.60;;;;;;;-3.20;88.49;97388.41;5064452;28;20060;-65
2022/01/17 03:58:27;;;;;;;26.70;11.55;;;;;;;-4.25;90.55;97334.38;5064808;28;20049;-62
2022/01/17 04:00:56;;;;;;;24.58;10.88;;;;;;;-3.65;90.28;97389.28;5067294;28;20060;-66
2022/01/17 04:03:24;;;;;;;39.38;13.80;;;;;;;-3.76;90.26;97365.22;5084491;28;20060;-62
2022/01/17 04:05:51;;;;;;;74.65;26.27;;;;;;;-3.72;90.90;97383.34;5084704;28;20058;-64
2022/01/17 04:08:18;;;;;;;69.28;23.25;;;;;;;-3.60;90.54;97385.75;5085401;28;20510;-65
2022/01/17 04:10:45;;;;;;;69.13;22.50;;;;;;;-4.13;90.63;97294.34;5086058;28;20485;-64
2022/01/17 04:13:12;;;;;;;59.70;22.75;;;;;;;-3.80;90.64;97337.06;5085469;28;20063;-64
2022/01/17 04:15:39;;;;;;;56.42;23.52;;;;;;;-3.62;90.21;97363.59;5086083;28;20263;-64
2022/01/17 04:18:08;;;;;;;83.57;30.17;;;;;;;-3.54;90.83;97379.28;5085731;28;20055;-64
2022/01/17 04:20:37;;;;;;;64.05;23.55;;;;;;;-3.56;90.62;97370.59;5085599;28;20062;-64
2022/01/17 04:23:07;;;;;;;61.38;21.75;;;;;;;-3.55;90.65;97375.75;5085808;28;20105;-63
2022/01/17 04:25:36;;;;;;;50.38;16.52;;;;;;;-3.54;90.07;97373.88;5085760;28;20052;-62
2022/01/17 04:28:04;;;;;;;35.42;15.35;;;;;;;-3.82;89.67;97350.03;5085425;28;20505;-61
2022/01/17 04:30:31;;;;;;;31.40;11.93;;;;;;;-3.56;89.52;97374.13;5085469;28;20062;-64
2022/01/17 04:32:59;;;;;;;27.35;12.52;;;;;;;-3.79;89.06;97355.72;5083567;28;20070;-64
2022/01/17 04:35:27;;;;;;;34.42;12.93;;;;;;;-3.64;89.34;97368.44;5085475;28;20055;-64
2022/01/17 04:37:58;;;;;;;28.23;11.07;;;;;;;-3.78;92.49;97351.94;5085509;28;20048;-61
2022/01/17 04:40:25;;;;;;;28.58;10.75;;;;;;;-3.87;93.15;97347.38;5043050;28;20059;-61
2022/01/17 04:42:55;;;;;;;29.38;10.80;;;;;;;-3.74;93.62;97357.63;5085354;28;20048;-63
2022/01/17 04:45:22;;;;;;;25.58;9.02;;;;;;;-3.97;94.06;97345.47;5085226;28;20062;-61
2022/01/17 04:47:52;;;;;;;29.90;11.55;;;;;;;-3.73;93.53;97364.69;5085012;28;20109;-62
2022/01/17 04:50:25;;;;;;;28.67;11.50;;;;;;;-4.29;92.62;97242.19;5084720;28;20048;-61
2022/01/17 04:52:54;;;;;;;;;;;;;;;-3.66;93.09;97343.53;5084421;28;20495;-61
2022/01/17 04:55:23;;;;;;;37.22;12.70;;;;;;;-3.69;92.71;97311.63;5083341;28;19924;-61
2022/01/17 04:57:50;;;;;;;23.27;7.70;;;;;;;-4.54;95.91;97314.31;5084920;28;20052;-65
2022/01/17 05:00:19;;;;;;;25.63;10.55;;;;;;;-4.09;97.64;97344.91;5083318;28;20475;-63
2022/01/17 05:02:46;;;;;;;43.95;15.60;;;;;;;-4.16;95.63;97408.47;5068274;28;20064;-64
2022/01/17 05:05:14;;;;;;;31.75;14.02;;;;;;;-3.85;94.43;97350.59;5062940;28;20076;-63
2022/01/17 05:07:41;;;;;;;99.72;38.85;;;;;;;-3.76;94.13;97357.09;5064719;28;20135;-64
2022/01/17 05:10:18;;;;;;;70.05;30.75;;;;;;;-4.37;92.71;97247.31;5064505;28;20049;-62
2022/01/17 05:12:46;;;;;;;75.55;28.77;;;;;;;-3.81;92.17;97349.00;5063479;28;20064;-64
2022/01/17 05:15:28;;;;;;;71.82;33.97;;;;;;;-5.50;91.92;97068.47;5063450;28;20519;-62
2022/01/17 05:17:59;;;;;;;77.15;31.80;;;;;;;-3.75;93.31;97350.59;5063258;28;20063;-66
2022/01/17 05:20:26;;;;;;;68.60;25.17;;;;;;;-4.09;92.70;97271.06;5063704;28;20048;-65
2022/01/17 05:22:54;;;;;;;124.47;44.33;;;;;;;-4.29;92.76;97239.47;5064179;28;20052;-61
2022/01/17 05:25:20;;;;;;;86.90;31.83;;;;;;;-3.67;92.79;97342.75;5064116;28;20431;-61
2022/01/17 05:27:47;;;;;;;105.15;36.40;;;;;;;-3.68;93.11;97337.59;5063007;28;20051;-61
2022/01/17 05:30:16;;;;;;;87.00;30.30;;;;;;;-3.68;92.70;97345.69;5067121;28;20048;-61
2022/01/17 05:32:44;;;;;;;74.15;27.20;;;;;;;-6.02;92.13;96954.63;5067005;28;20062;-61
2022/01/17 05:35:12;;;;;;;61.55;22.00;;;;;;;-3.92;92.18;97291.34;5074204;28;20056;-64
2022/01/17 05:37:39;;;;;;;53.00;20.15;;;;;;;-4.11;91.73;97254.34;5070190;28;20059;-65
2022/01/17 05:40:08;;;;;;;49.25;18.77;;;;;;;-3.72;91.78;97323.00;5063647;28;20154;-65
2022/01/17 05:42:35;;;;;;;46.60;18.48;;;;;;;-3.92;92.23;97317.59;5075478;28;20048;-68
2022/01/17 05:45:04;;;;;;;59.88;21.92;;;;;;;-4.23;91.25;97268.13;5074989;28;20089;-67
2022/01/17 05:47:31;;;;;;;54.53;22.23;;;;;;;-4.45;91.43;97247.84;5080268;28;20073;-65
2022/01/17 05:50:01;;;;;;;58.90;22.85;;;;;;;-4.27;93.97;97314.91;5081985;28;20099;-65
2022/01/17 05:52:31;;;;;;;58.88;21.20;;;;;;;-3.90;94.32;97345.19;5082828;28;20135;-67
2022/01/17 05:54:59;;;;;;;59.45;20.13;;;;;;;-3.90;93.25;97323.53;5083964;28;20059;-68
2022/01/17 05:57:26;;;;;;;86.82;28.83;;;;;;;-3.74;92.52;97335.97;5082280;28;20161;-67
2022/01/17 05:59:53;;;;;;;81.10;26.45;;;;;;;-3.62;91.37;97342.72;5084086;28;20048;-67
2022/01/17 06:02:19;;;;;;;80.40;25.95;;;;;;;-3.68;91.15;97343.00;5083378;28;20229;-66
2022/01/17 06:04:47;;;;;;;40.70;14.45;;;;;;;-4.21;91.76;97332.75;5083769;28;20101;-63
2022/01/17 06:07:14;;;;;;;58.13;23.25;;;;;;;-4.46;93.44;97259.75;5083334;28;20051;-65
2022/01/17 06:09:41;;;;;;;81.72;29.23;;;;;;;-4.38;93.01;97253.81;5082447;28;20055;-67
2022/01/17 06:12:08;;;;;;;75.05;26.48;;;;;;;-3.73;92.19;97332.19;5083597;28;20062;-64
2022/01/17 06:14:35;;;;;;;58.67;22.35;;;;;;;-3.78;92.34;97303.22;5083744;28;20543;-69
2022/01/17 06:17:02;;;;;;;43.88;17.42;;;;;;;-3.61;92.07;97302.94;5081639;28;20047;-66
2022/01/17 06:19:29;;;;;;;31.85;13.07;;;;;;;-3.61;90.84;97276.69;5083167;28;20079;-67
2022/01/17 06:21:56;;;;;;;37.95;14.45;;;;;;;-3.82;91.14;97220.19;5082754;28;20048;-64
2022/01/17 06:24:23;;;;;;;40.10;14.35;;;;;;;-3.14;90.31;97335.84;5082272;28;20055;-65
2022/01/17 06:26:50;;;;;;;42.47;15.88;;;;;;;-5.14;90.59;97043.13;5078125;28;20053;-68
2022/01/17 06:29:17;;;;;;;41.83;15.77;;;;;;;-3.69;91.66;97242.06;5063386;28;20053;-68
2022/01/17 06:31:45;;;;;;;29.92;12.73;;;;;;;-3.56;91.79;97294.81;5063218;28;20063;-66
2022/01/17 06:34:12;;;;;;;45.22;17.00;;;;;;;-6.46;92.39;96795.34;5063204;28;20053;-63
2022/01/17 06:36:42;;;;;;;45.30;16.08;;;;;;;-3.85;91.74;97180.16;5062917;28;20446;-65
2022/01/17 06:39:10;;;;;;;47.08;15.63;;;;;;;-2.79;90.04;97311.31;5061962;28;20424;-65
2022/01/17 06:41:39;;;;;;;45.42;17.08;;;;;;;-3.13;87.82;97256.22;5061586;28;20044;-65
2022/01/17 06:44:06;;;;;;;48.58;19.92;;;;;;;-2.51;88.39;97307.91;5062816;28;20045;-66
2022/01/17 06:46:34;;;;;;;98.10;38.45;;;;;;;-2.30;87.59;97309.41;5063058;28;20056;-65
2022/01/17 06:49:01;;;;;;;101.60;37.03;;;;;;;-2.41;85.67;97263.63;5062598;28;20049;-65
2022/01/17 06:51:28;;;;;;;108.72;41.67;;;;;;;-2.72;85.76;97203.41;5062825;28;20057;-67
2022/01/17 06:53:55;;;;;;;112.22;42.28;;;;;;;-4.82;84.95;96849.16;5074551;28;20051;-66
2022/01/17 06:56:22;;;;;;;87.53;34.70;;;;;;;-2.30;83.24;97227.19;5084289;28;20044;-63
2022/01/17 06:58:49;;;;;;;63.58;26.02;;;;;;;-1.50;83.49;97313.31;5067919;28;20058;-61
2022/01/17 07:01:19;;;;;;;67.65;23.35;;;;;;;-1.41;82.72;97310.78;5073511;28;20057;-59
2022/01/17 07:03:47;;;;;;;60.75;23.05;;;;;;;-1.24;82.17;97290.22;5067594;28;20047;-61
2022/01/17 07:06:13;;;;;;;61.67;22.13;;;;;;;-1.15;82.30;97298.53;5066654;28;20058;-62
2022/01/17 07:08:40;;;;;;;73.72;25.88;;;;;;;-0.99;80.89;97311.66;5068318;28;20055;-62
2022/01/17 07:11:07;;;;;;;50.15;19.73;;;;;;;-0.90;80.80;97285.44;5071245;28;20052;-63
2022/01/17 07:13:34;;;;;;;64.47;23.13;;;;;;;-0.73;79.69;97264.03;5076366;28;20059;-66
2022/01/17 07:16:00;;;;;;;55.50;21.00;;;;;;;-0.64;79.59;97242.41;5073401;28;20055;-61
2022/01/17 07:18:27;;;;;;;48.38;20.23;;;;;;;-0.48;78.74;97265.56;5071155;28;20055;-59
2022/01/17 07:20:54;;;;;;;46.85;17.23;;;;;;;-1.24;78.54;97094.59;5076465;28;20489;-64
2022/01/17 07:23:21;;;;;;;36.63;14.93;;;;;;;-0.44;78.29;97223.06;5071000;28;20132;-63
2022/01/17 07:25:48;;;;;;;39.92;15.60;;;;;;;-0.49;77.56;97187.81;5070387;28;20049;-63
2022/01/17 07:28:14;;;;;;;35.28;15.07;;;;;;;0.03;76.58;97260.16;5073428;28;20074;-63
2022/01/17 07:30:41;;;;;;;43.83;15.27;;;;;;;-0.27;78.46;97250.56;5067521;28;20147;-63
2022/01/17 07:33:08;;;;;;;38.38;16.20;;;;;;;-0.33;77.87;97170.09;5065455;28;20049;-63
2022/01/17 07:35:36;;;;;;;36.60;15.35;;;;;;;0.61;76.64;97234.03;5074613;28;20054;-65
2022/01/17 07:38:04;;;;;;;42.28;17.63;;;;;;;-0.03;74.48;97126.00;5064534;28;20058;-61
2022/01/17 07:40:33;;;;;;;38.47;17.63;;;;;;;1.11;73.99;97228.34;5072160;28;20052;-61
2022/01/17 07:43:00;;;;;;;39.97;16.83;;;;;;;1.18;72.95;97217.84;5074648;28;20070;-59
2022/01/17 07:45:27;;;;;;;49.65;21.55;;;;;;;0.98;71.61;97158.28;5068005;28;20056;-64
2022/01/17 07:50:23;;;;;;;23.42;8.70;;;;;;;0.28;79.05;97219.69;5067843;28;20056;-65
2022/01/17 07:52:52;;;;;;;24.73;11.32;;;;;;;0.55;79.61;97236.06;5077237;28;20060;-63
2022/01/17 07:55:20;;;;;;;22.63;10.10;;;;;;;0.23;78.98;97186.25;5074245;28;20048;-65
2022/01/17 07:57:48;;;;;;;29.17;11.50;;;;;;;0.65;79.04;97271.28;5077383;28;20055;-62
2022/01/17 08:00:20;;;;;;;35.58;14.93;;;;;;;0.94;78.76;97247.25;5074219;28;20057;-66
2022/01/17 08:02:53;;;;;;;28.05;10.15;;;;;;;0.55;76.95;97131.69;5073543;28;20135;-62
2022/01/17 08:05:20;;;;;;;32.42;12.77;;;;;;;0.36;75.18;97096.41;5069465;28;20052;-62
2022/01/17 08:07:47;;;;;;;37.05;14.88;;;;;;;1.47;74.97;97242.03;5076036;28;20060;-65
2022/01/17 08:10:14;;;;;;;38.33;16.00;;;;;;;1.79;75.05;97238.31;5070272;28;20055;-60
2022/01/17 08:12:42;;;;;;;35.33;15.98;;;;;;;2.07;72.94;97250.72;5073647;28;20056;-68
2022/01/17 08:15:11;;;;;;;44.45;18.80;;;;;;;2.38;72.47;97229.69;5067892;28;20160;-62
2022/01/17 08:17:38;;;;;;;48.22;22.75;;;;;;;2.65;71.92;97244.00;5076845;28;20071;-65
2022/01/17 08:20:06;;;;;;;44.30;19.90;;;;;;;2.82;68.00;97295.22;5068936;28;20050;-68
2022/01/17 08:22:33;;;;;;;41.25;18.17;;;;;;;2.69;68.55;97263.28;5079890;28;20056;-65
2022/01/17 08:24:59;;;;;;;38.63;17.13;;;;;;;2.92;66.95;97262.13;5082077;28;20052;-62
2022/01/17 08:27:27;;;;;;;36.78;16.15;;;;;;;3.36;66.49;97330.38;5076530;28;20047;-62
2022/01/17 08:29:55;;;;;;;23.95;10.85;;;;;;;3.49;65.08;97299.34;5067657;28;20052;-61
2022/01/17 08:32:41;;;;;;;24.42;9.32;;;;;;;3.49;65.30;97250.06;5063514;28;20048;-68
2022/01/17 08:35:09;;;;;;;24.20;11.07;;;;;;;3.50;63.40;97261.78;5072168;28;20067;-66
2022/01/17 08:37:36;;;;;;;30.63;13.15;;;;;;;3.86;62.92;97276.84;5081599;28;20477;-61
2022/01/17 08:40:05;;;;;;;29.02;11.75;;;;;;;3.52;61.33;97167.28;5081922;28;20048;-62
2022/01/17 08:42:37;;;;;;;26.25;11.98;;;;;;;4.12;61.01;97247.50;5074294;28;20066;-63
2022/01/17 08:45:12;;;;;;;30.67;12.05;;;;;;;4.00;62.00;97236.38;5077164;28;20106;-60
2022/01/17 08:47:59;;;;;;;23.40;10.23;;;;;;;3.48;63.13;97166.28;5069933;28;20580;-63
2022/01/17 08:50:27;;;;;;;23.02;9.68;;;;;;;3.55;63.87;97171.28;5072182;28;21463;-62
2022/01/17 08:52:53;;;;;;;24.05;10.73;;;;;;;4.02;63.18;97219.59;5073395;28;20438;-61
2022/01/17 08:55:22;;;;;;;21.17;8.38;;;;;;;4.10;62.42;97174.94;5071369;28;20510;-61
2022/01/17 08:57:49;;;;;;;22.77;8.98;;;;;;;4.50;61.46;97143.38;5069890;28;20058;-61
2022/01/17 09:00:18;;;;;;;17.83;7.97;;;;;;;4.02;60.53;97039.56;5072799;28;20051;-63
2022/01/17 09:03:05;;;;;;;17.25;8.93;;;;;;;4.43;60.06;97135.66;5060503;28;20534;-61
2022/01/17 09:05:33;;;;;;;23.30;9.32;;;;;;;4.80;59.81;97141.47;5074239;28;20055;-64
2022/01/17 09:08:02;;;;;;;26.17;11.50;;;;;;;4.84;59.38;97090.28;5074373;28;20048;-61
2022/01/17 09:10:29;;;;;;;60.25;21.10;;;;;;;5.07;55.58;97048.47;5077584;28;20044;-61
2022/01/17 09:12:59;;;;;;;43.13;17.13;;;;;;;5.04;55.08;97037.34;5067516;28;20053;-61
2022/01/17 09:15:26;;;;;;;43.25;17.65;;;;;;;5.67;55.96;97091.88;5067238;28;20404;-62
2022/01/17 09:17:53;;;;;;;45.53;17.73;;;;;;;5.62;55.80;97061.88;5069334;28;20139;-60
2022/01/17 09:20:20;;;;;;;40.97;17.63;;;;;;;5.73;55.21;97055.63;5067752;28;20134;-61
2022/01/17 09:22:47;;;;;;;28.70;16.42;;;;;;;5.59;54.19;97013.09;5071600;28;20060;-63
2022/01/17 09:25:14;;;;;;;39.60;18.80;;;;;;;6.33;54.57;97079.72;5077324;28;20113;-63
2022/01/17 09:27:42;;;;;;;59.78;24.77;;;;;;;6.54;52.95;97099.69;5078558;28;20047;-62
2022/01/17 09:30:12;;;;;;;31.27;13.38;;;;;;;6.37;53.46;97154.13;5080339;28;20048;-64
2022/01/17 09:32:40;;;;;;;24.27;11.57;;;;;;;6.25;53.61;97077.88;5071257;28;20495;-60
2022/01/17 09:35:08;;;;;;;27.63;10.88;;;;;;;6.37;53.33;97069.63;5072702;28;20048;-60
2022/01/17 09:37:35;;;;;;;18.80;8.38;;;;;;;6.49;51.54;97088.09;5071328;28;20469;-63
2022/01/17 09:40:04;;;;;;;14.27;6.82;;;;;;;5.88;52.21;97040.47;5070768;28;20657;-62
2022/01/17 09:42:35;;;;;;;14.75;7.75;;;;;;;6.37;52.31;97102.63;5070654;28;20049;-60
2022/01/17 09:45:14;;;;;;;12.27;5.40;;;;;;;6.28;50.74;96999.38;5066294;28;20053;-63
2022/01/17 09:47:42;;;;;;;11.90;6.30;;;;;;;6.85;50.24;97025.59;5064797;28;20064;-63
2022/01/17 09:50:13;;;;;;;11.25;4.90;;;;;;;7.31;48.94;97043.50;5077948;28;20050;-61
2022/01/17 09:52:46;;;;;;;11.60;4.68;;;;;;;7.61;46.35;97042.81;5075800;28;20155;-62
2022/01/17 09:55:23;;;;;;;9.80;4.72;;;;;;;8.00;44.92;97065.16;5073331;28;20672;-63
2022/01/17 09:58:02;;;;;;;9.70;4.18;;;;;;;8.26;45.18;97057.19;5070155;28;20048;-61
2022/01/17 10:00:32;;;;;;;7.43;4.95;;;;;;;8.57;44.50;97052.47;5067606;28;20054;-62
2022/01/17 10:03:03;;;;;;;10.88;5.78;;;;;;;8.89;43.87;97064.28;5080284;28;20066;-64
2022/01/17 10:05:30;;;;;;;9.82;4.35;;;;;;;8.99;42.83;97063.75;5070698;28;20459;-60
2022/01/17 10:08:05;;;;;;;6.97;3.85;;;;;;;9.01;42.47;97055.88;5078110;28;20070;-63
2022/01/17 10:11:04;;;;;;;7.40;4.25;;;;;;;9.23;42.05;97057.19;5079787;28;20048;-65
2022/01/17 10:13:37;;;;;;;7.40;3.92;;;;;;;9.40;42.75;97052.06;5071969;28;20048;-63
2022/01/17 10:16:19;;;;;;;10.00;4.85;;;;;;;9.68;42.08;97049.88;5064888;28;20473;-67
2022/01/17 10:19:00;;;;;;;7.95;3.75;;;;;;;9.38;40.50;96990.78;5076026;28;20396;-62
2022/01/17 10:21:31;;;;;;;6.65;3.60;;;;;;;9.85;41.12;97038.34;5072248;28;20058;-61
2022/01/17 10:35:14;;;;;;;7.72;4.18;;;;;;;10.06;40.83;97008.31;5079066;28;20056;-60
2022/01/17 10:38:16;;;;;;;9.68;4.60;;;;;;;8.47;40.42;96756.88;5070620;28;20051;-59
2022/01/17 10:40:50;;;;;;;7.65;4.45;;;;;;;10.43;40.07;96972.63;5062890;28;20128;-61
2022/01/17 10:43:32;;;;;;;9.75;4.63;;;;;;;10.49;39.69;96971.94;5070394;28;20052;-64
2022/01/17 10:45:59;;;;;;;14.52;6.57;;;;;;;10.59;39.68;96976.81;5068057;28;20151;-61
2022/01/17 10:48:34;;;;;;;17.13;7.75;;;;;;;10.78;39.65;96977.91;5061499;28;20052;-65
2022/01/17 10:51:04;;;;;;;13.77;4.60;;;;;;;10.88;39.12;96975.28;5061256;28;20048;-65
2022/01/17 10:53:31;;;;;;;9.35;3.65;;;;;;;10.22;39.43;96867.06;5063350;28;20071;-64
2022/01/17 10:55:59;;;;;;;10.18;5.68;;;;;;;11.02;40.73;96999.66;5062327;28;20056;-65
2022/01/17 10:58:29;;;;;;;15.13;6.57;;;;;;;11.13;39.87;96970.09;5061589;28;20051;-66
2022/01/17 11:00:59;;;;;;;9.93;5.80;;;;;;;11.33;38.39;96960.47;5062497;28;20505;-60
2022/01/17 11:03:29;;;;;;;10.48;4.63;;;;;;;11.03;37.56;96930.00;5062944;28;20056;-60
2022/01/17 11:06:00;;;;;;;8.45;5.45;;;;;;;11.38;37.88;96960.13;5062467;28;20056;-69
2022/01/17 11:08:29;;;;;;;10.23;4.95;;;;;;;11.33;37.72;96950.19;5063115;28;20061;-62
2022/01/17 11:10:58;;;;;;;9.18;5.95;;;;;;;11.27;37.77;96942.56;5061161;28;20052;-63
2022/01/17 11:13:28;;;;;;;17.45;7.15;;;;;;;10.55;37.61;96812.59;5063244;28;20052;-60
2022/01/17 11:15:58;;;;;;;13.95;5.32;;;;;;;10.67;37.77;96839.22;5062365;28;20052;-60
2022/01/17 11:18:28;;;;;;;22.42;9.55;;;;;;;10.77;37.57;96862.69;5064375;28;20056;-61
2022/01/17 11:21:03;;;;;;;11.88;6.20;;;;;;;11.09;37.39;96916.56;5066991;28;20060;-67
2022/01/17 11:23:30;;;;;;;10.75;6.30;;;;;;;9.67;37.40;96716.41;5074564;28;20534;-63
2022/01/17 11:25:57;;;;;;;14.02;8.98;;;;;;;11.04;37.08;96901.09;5070061;28;20059;-60
2022/01/17 11:28:30;;;;;;;14.40;6.43;;;;;;;11.18;37.20;96926.22;5076974;28;20084;-67
2022/01/17 11:31:04;;;;;;;16.08;8.10;;;;;;;10.81;36.78;96833.09;5071058;28;20056;-60
2022/01/17 11:33:32;;;;;;;12.52;6.43;;;;;;;11.22;36.91;96913.19;5081260;28;20095;-61
2022/01/17 11:35:59;;;;;;;11.75;6.22;;;;;;;8.65;36.81;96495.75;5073674;28;20052;-60
2022/01/17 11:38:29;;;;;;;10.38;5.95;;;;;;;11.03;37.05;96893.16;5070534;28;20056;-60
2022/01/17 11:40:57;;;;;;;13.07;7.60;;;;;;;11.16;37.55;96928.56;5074646;28;20044;-62
2022/01/17 11:43:33;;;;;;;15.00;7.32;;;;;;;10.16;37.70;96780.78;5080104;28;20429;-64
2022/01/17 11:46:20;;;;;;;13.55;6.70;;;;;;;11.01;37.80;96942.59;5080815;28;20086;-63
2022/01/17 11:49:11;;;;;;;10.40;7.20;;;;;;;10.93;37.99;96935.38;5065298;28;20068;-64
2022/01/17 11:51:44;;;;;;;11.52;5.32;;;;;;;11.02;38.12;96945.00;5064484;28;20068;-64